Time;durP1;ratioP1;P1;durP2;ratioP2;P2;SDS_P1;SDS_P2;PMS_P1;PMS_P2;Temp;Humidity;BMP_temperature;BMP_pressure;BME280_temperature;BME280_humidity;BME280_pressure;Samples;Min_cycle;Max_cycle;Signal;HPM_P1;HPM_P2
2023/03/30 00:03:01;;;;;;;6.32;2.42;;;12.50;82.80;;;;;;4969994;28;20052;-58
2023/03/30 00:05:27;;;;;;;6.70;2.85;;;12.40;84.10;;;;;;4971088;28;20072;-58
2023/03/30 00:07:54;;;;;;;7.30;2.35;;;12.40;89.50;;;;;;4976603;28;20295;-59
2023/03/30 00:10:19;;;;;;;7.30;2.70;;;12.40;93.20;;;;;;4976976;28;20093;-58
2023/03/30 00:12:49;;;;;;;6.88;2.45;;;12.40;85.30;;;;;;4977198;28;20298;-58
2023/03/30 00:15:17;;;;;;;5.65;2.63;;;12.40;75.20;;;;;;4975197;28;20034;-57
2023/03/30 00:17:43;;;;;;;6.57;2.50;;;12.40;60.40;;;;;;4975607;28;20137;-58
2023/03/30 00:20:10;;;;;;;6.90;2.72;;;12.50;53.10;;;;;;4978677;28;20042;-58
2023/03/30 00:22:38;;;;;;;7.72;2.90;;;12.50;33.00;;;;;;4979268;28;20069;-58
2023/03/30 00:25:05;;;;;;;7.63;2.60;;;12.50;25.90;;;;;;4976572;28;20169;-58
2023/03/30 00:27:31;;;;;;;5.70;2.22;;;12.50;23.10;;;;;;4979590;28;20034;-58
2023/03/30 00:29:57;;;;;;;9.32;2.88;;;12.50;22.90;;;;;;4978511;28;20547;-58
2023/03/30 00:32:22;;;;;;;7.68;2.70;;;12.50;31.30;;;;;;4978206;28;20065;-58
2023/03/30 00:34:48;;;;;;;6.93;2.58;;;12.50;21.70;;;;;;4983458;28;20031;-58
2023/03/30 00:37:14;;;;;;;6.38;2.17;;;12.30;37.50;;;;;;4982985;28;20205;-58
2023/03/30 00:39:40;;;;;;;5.38;2.42;;;;;;;;;;4981339;28;20034;-58
2023/03/30 00:42:05;;;;;;;7.03;2.90;;;12.20;50.60;;;;;;4982641;28;20053;-58
2023/03/30 00:45:06;;;;;;;7.28;2.47;;;12.20;49.40;;;;;;4985811;28;20763;-58
2023/03/30 00:47:33;;;;;;;7.55;2.42;;;12.30;30.10;;;;;;4991631;28;20069;-58
2023/03/30 00:49:59;;;;;;;8.52;2.58;;;12.30;27.20;;;;;;4981017;28;20104;-58
2023/03/30 00:52:26;;;;;;;6.82;2.42;;;12.20;18.30;;;;;;4979610;28;20046;-58
2023/03/30 00:54:55;;;;;;;7.07;2.38;;;12.20;38.10;;;;;;4977497;28;20042;-58
2023/03/30 00:57:23;;;;;;;8.38;2.50;;;12.20;15.40;;;;;;4976701;28;20125;-58
2023/03/30 00:59:51;;;;;;;9.60;2.67;;;12.40;4.30;;;;;;4982228;28;20034;-58
2023/03/30 01:02:17;;;;;;;4.03;2.08;;;12.30;2.30;;;;;;4980829;28;20038;-58
2023/03/30 01:04:45;;;;;;;6.32;2.55;;;12.30;9.20;;;;;;4981309;28;20053;-58
2023/03/30 01:07:11;;;;;;;8.57;2.60;;;12.20;28.80;;;;;;4976233;28;20482;-59
2023/03/30 01:09:39;;;;;;;6.78;2.72;;;12.20;12.60;;;;;;4981817;28;20034;-58
2023/03/30 01:12:05;;;;;;;7.97;2.83;;;12.10;21.20;;;;;;4981996;28;20607;-58
2023/03/30 01:14:31;;;;;;;8.43;2.60;;;12.10;37.80;;;;;;4984117;28;20033;-58
2023/03/30 01:17:12;;;;;;;9.55;2.53;;;12.10;14.70;;;;;;4979720;28;20759;-58
2023/03/30 01:20:07;;;;;;;5.80;2.15;;;12.10;21.90;;;;;;4981637;28;20042;-58
2023/03/30 01:23:13;;;;;;;7.07;2.40;;;12.00;24.30;;;;;;4976971;28;20038;-58
2023/03/30 01:26:19;;;;;;;8.20;2.38;;;12.00;36.30;;;;;;4969667;28;20038;-58
2023/03/30 01:29:16;;;;;;;9.25;2.78;;;12.00;26.00;;;;;;4981694;28;20482;-58
2023/03/30 01:32:18;;;;;;;5.70;2.22;;;12.10;18.70;;;;;;4978958;28;20674;-58
2023/03/30 01:35:06;;;;;;;7.03;2.58;;;12.10;8.40;;;;;;4979990;28;20042;-58
2023/03/30 01:38:09;;;;;;;9.57;2.60;;;12.10;12.00;;;;;;4977466;28;20390;-58
2023/03/30 01:40:40;;;;;;;7.80;2.60;;;12.10;17.50;;;;;;4981588;28;20068;-58
2023/03/30 01:43:16;;;;;;;8.25;2.50;;;12.10;13.10;;;;;;4980429;28;20459;-58
2023/03/30 01:45:45;;;;;;;5.82;2.20;;;12.20;1.00;;;;;;4984328;28;20321;-58
2023/03/30 01:48:32;;;;;;;8.68;2.47;;;12.20;1.00;;;;;;4978897;28;20029;-58
2023/03/30 01:51:11;;;;;;;7.28;2.75;;;12.10;1.00;;;;;;4984366;28;20484;-58
2023/03/30 01:53:45;;;;;;;5.82;2.15;;;12.20;1.00;;;;;;4980614;28;20038;-58
2023/03/30 01:56:39;;;;;;;6.47;2.22;;;12.30;1.00;;;;;;4977870;28;20337;-58
2023/03/30 01:59:17;;;;;;;8.48;2.33;;;12.40;1.00;;;;;;4980926;28;20160;-58
2023/03/30 02:01:49;;;;;;;9.75;2.53;;;12.40;1.00;;;;;;4981428;28;20042;-58
2023/03/30 02:04:18;;;;;;;7.60;2.38;;;12.40;1.00;;;;;;4979291;28;20085;-57
2023/03/30 02:06:49;;;;;;;5.97;2.30;;;12.50;1.00;;;;;;4980715;28;20057;-58
2023/03/30 02:09:19;;;;;;;9.02;2.10;;;12.50;1.00;;;;;;4981992;28;20027;-58
2023/03/30 02:11:48;;;;;;;3.40;1.90;;;12.50;1.00;;;;;;4981200;28;20548;-58
2023/03/30 02:14:19;;;;;;;6.30;2.10;;;12.60;1.00;;;;;;4979962;28;20112;-59
2023/03/30 02:16:47;;;;;;;9.38;2.22;;;12.60;1.00;;;;;;4981925;28;20606;-58
2023/03/30 02:19:14;;;;;;;6.20;1.83;;;12.60;1.00;;;;;;4980614;28;20038;-58
2023/03/30 02:21:41;;;;;;;8.52;2.55;;;12.60;1.00;;;;;;4979781;28;20034;-59
2023/03/30 02:24:16;;;;;;;6.07;2.28;;;12.60;1.00;;;;;;4980113;28;20426;-58
2023/03/30 02:26:46;;;;;;;8.40;1.95;;;12.60;1.00;;;;;;4982964;28;20033;-58
2023/03/30 02:29:13;;;;;;;6.63;2.22;;;12.80;1.00;;;;;;4981838;28;20062;-58
2023/03/30 02:31:39;;;;;;;7.80;2.05;;;12.80;1.00;;;;;;4980034;28;20173;-58
2023/03/30 02:34:31;;;;;;;6.88;1.83;;;12.80;1.00;;;;;;4980329;28;20524;-58
2023/03/30 02:37:03;;;;;;;6.03;2.17;;;12.80;1.00;;;;;;4948278;28;20419;-58
2023/03/30 02:39:45;;;;;;;5.80;2.40;;;12.80;1.00;;;;;;4979746;28;20058;-58
2023/03/30 02:42:30;;;;;;;7.60;2.42;;;12.80;1.00;;;;;;4976152;28;20447;-58
2023/03/30 02:45:18;;;;;;;5.55;1.80;;;12.90;1.00;;;;;;4982894;28;20181;-58
2023/03/30 02:48:07;;;;;;;6.68;2.05;;;12.80;1.00;;;;;;4979158;28;20139;-58
2023/03/30 02:50:45;;;;;;;6.38;1.90;;;12.70;1.00;;;;;;4980860;28;20033;-58
2023/03/30 02:53:31;;;;;;;10.00;2.05;;;12.70;1.00;;;;;;4977841;28;20039;-58
2023/03/30 02:56:18;;;;;;;6.43;2.00;;;12.70;1.00;;;;;;4980617;28;20070;-58
2023/03/30 02:59:04;;;;;;;8.15;2.22;;;12.70;1.00;;;;;;4976908;28;20062;-58
2023/03/30 03:01:41;;;;;;;9.85;2.10;;;12.60;1.00;;;;;;4979566;28;20046;-58
2023/03/30 03:04:09;;;;;;;4.50;2.33;;;12.60;1.00;;;;;;4978068;28;20073;-58
2023/03/30 03:06:36;;;;;;;9.13;1.90;;;12.60;1.00;;;;;;4979204;28;20038;-58
2023/03/30 03:09:03;;;;;;;6.45;2.08;;;12.50;1.00;;;;;;4976592;28;20436;-59
2023/03/30 03:11:29;;;;;;;5.10;2.10;;;12.40;1.00;;;;;;4979093;28;20041;-58
2023/03/30 03:13:55;;;;;;;5.82;1.85;;;12.50;1.00;;;;;;4978133;28;20042;-58
2023/03/30 03:16:20;;;;;;;6.10;2.20;;;12.60;1.00;;;;;;4983612;28;20042;-58
2023/03/30 03:18:46;;;;;;;7.82;2.38;;;12.70;1.00;;;;;;4983864;28;20417;-59
2023/03/30 03:21:15;;;;;;;5.38;2.10;;;12.80;1.00;;;;;;4980104;28;20046;-59
2023/03/30 03:23:41;;;;;;;5.10;1.90;;;12.70;1.00;;;;;;4977673;28;20338;-58
2023/03/30 03:26:08;;;;;;;6.75;2.20;;;12.80;1.00;;;;;;4978297;28;20038;-58
2023/03/30 03:28:35;;;;;;;4.80;2.05;;;12.80;1.00;;;;;;4983458;28;20026;-58
2023/03/30 03:31:01;;;;;;;4.07;2.10;;;12.90;1.00;;;;;;4977797;28;20030;-58
2023/03/30 03:33:27;;;;;;;7.72;1.83;;;13.00;1.00;;;;;;4978840;28;20042;-58
2023/03/30 03:35:58;;;;;;;7.78;1.80;;;13.00;1.00;;;;;;4978000;28;20533;-58
2023/03/30 03:38:25;;;;;;;7.90;2.03;;;13.00;1.00;;;;;;4978208;28;20555;-58
2023/03/30 03:40:51;;;;;;;8.38;2.00;;;13.00;1.00;;;;;;4979217;28;20101;-58
2023/03/30 03:43:17;;;;;;;7.38;2.20;;;12.90;1.00;;;;;;4983306;28;20038;-59
2023/03/30 03:45:47;;;;;;;6.68;2.20;;;13.00;1.00;;;;;;4979024;28;20034;-58
2023/03/30 03:48:18;;;;;;;8.13;2.20;;;13.00;1.00;;;;;;4977095;28;20722;-58
2023/03/30 03:50:44;;;;;;;6.45;2.08;;;13.00;1.00;;;;;;4984265;28;20033;-58
2023/03/30 03:53:11;;;;;;;3.92;1.90;;;13.00;1.00;;;;;;4978123;28;20039;-59
2023/03/30 03:55:37;;;;;;;8.50;2.00;;;13.10;1.00;;;;;;4978750;28;20465;-59
2023/03/30 03:58:04;;;;;;;8.15;2.00;;;13.10;1.00;;;;;;4982804;28;20033;-59
2023/03/30 04:00:30;;;;;;;4.32;1.70;;;13.10;1.00;;;;;;4977611;28;20130;-58
2023/03/30 04:02:55;;;;;;;5.75;1.80;;;13.10;1.00;;;;;;4983865;28;20031;-58
2023/03/30 04:05:22;;;;;;;3.80;1.60;;;13.20;1.00;;;;;;4979960;28;20282;-59
2023/03/30 04:07:47;;;;;;;7.30;1.70;;;13.20;1.00;;;;;;4981457;28;20068;-58
2023/03/30 04:10:13;;;;;;;5.60;1.70;;;13.10;1.00;;;;;;4980123;28;20042;-58
2023/03/30 04:12:39;;;;;;;6.90;1.80;;;13.10;1.00;;;;;;4981912;28;20109;-58
2023/03/30 04:15:06;;;;;;;8.70;2.10;;;13.10;1.00;;;;;;4982524;28;20054;-58
2023/03/30 04:17:32;;;;;;;7.28;2.13;;;13.10;1.00;;;;;;4976360;28;20182;-59
2023/03/30 04:20:05;;;;;;;5.18;1.65;;;13.10;1.00;;;;;;4980368;28;20041;-58
2023/03/30 04:22:40;;;;;;;5.10;2.08;;;13.10;1.00;;;;;;4988614;28;20370;-59
2023/03/30 04:25:07;;;;;;;4.10;1.58;;;13.10;1.00;;;;;;4980127;28;20112;-58
2023/03/30 04:27:33;;;;;;;5.72;1.77;;;13.20;1.00;;;;;;4982769;28;20470;-58
2023/03/30 04:30:00;;;;;;;4.68;1.80;;;13.10;1.00;;;;;;4987138;28;20400;-59
2023/03/30 04:32:26;;;;;;;7.28;2.35;;;13.10;1.00;;;;;;4980862;28;20142;-58
2023/03/30 04:34:54;;;;;;;5.82;2.05;;;13.20;1.00;;;;;;4981403;28;20192;-58
2023/03/30 04:37:22;;;;;;;7.70;2.00;;;13.20;1.00;;;;;;4980034;28;20497;-58
2023/03/30 04:39:49;;;;;;;6.88;2.03;;;13.30;1.00;;;;;;4982051;28;20129;-58
2023/03/30 04:42:18;;;;;;;7.18;1.90;;;13.30;1.00;;;;;;4982074;28;20501;-58
2023/03/30 04:44:44;;;;;;;4.43;1.98;;;13.30;1.00;;;;;;4986939;28;20072;-59
2023/03/30 04:47:10;;;;;;;5.25;1.92;;;13.20;1.00;;;;;;4978600;28;20074;-58
2023/03/30 04:49:35;;;;;;;7.15;2.00;;;13.20;1.00;;;;;;4982264;28;20414;-58
2023/03/30 04:52:01;;;;;;;6.13;1.88;;;13.20;1.00;;;;;;4982341;28;20683;-59
2023/03/30 04:54:26;;;;;;;6.32;2.03;;;13.20;1.00;;;;;;4984310;28;20041;-58
2023/03/30 04:56:52;;;;;;;6.60;2.25;;;13.20;1.00;;;;;;4984379;28;20031;-57
2023/03/30 04:59:17;;;;;;;7.68;2.35;;;13.30;1.00;;;;;;4978861;28;20116;-57
2023/03/30 05:01:44;;;;;;;6.03;2.17;;;13.20;1.00;;;;;;4983149;28;20424;-57
2023/03/30 05:04:09;;;;;;;7.47;1.90;;;13.30;1.00;;;;;;4984266;28;20038;-57
2023/03/30 05:06:35;;;;;;;8.55;1.92;;;13.40;1.00;;;;;;4979498;28;20166;-57
2023/03/30 05:09:01;;;;;;;7.10;2.35;;;13.40;1.00;;;;;;4981362;28;20035;-57
2023/03/30 05:11:26;;;;;;;4.97;1.98;;;13.40;1.00;;;;;;4981890;28;20444;-57
2023/03/30 05:13:53;;;;;;;4.75;1.92;;;13.40;1.00;;;;;;4980947;28;20065;-57
2023/03/30 05:16:19;;;;;;;9.45;2.20;;;13.50;1.00;;;;;;4978925;28;20133;-60
2023/03/30 05:18:44;;;;;;;8.75;2.25;;;13.50;1.00;;;;;;4978197;28;20035;-57
2023/03/30 05:21:10;;;;;;;4.80;2.28;;;13.30;1.00;;;;;;4978909;28;20045;-57
2023/03/30 05:23:38;;;;;;;6.05;2.00;;;13.30;1.00;;;;;;4980942;28;20042;-56
2023/03/30 05:26:05;;;;;;;7.20;2.28;;;13.30;1.00;;;;;;4985277;28;20049;-56
2023/03/30 05:28:32;;;;;;;5.90;2.25;;;13.40;1.00;;;;;;4989993;28;20035;-56
2023/03/30 05:30:57;;;;;;;6.72;2.10;;;13.40;1.00;;;;;;4981880;28;20031;-56
2023/03/30 05:33:23;;;;;;;4.70;1.98;;;13.30;1.00;;;;;;4979862;28;20092;-56
2023/03/30 05:35:49;;;;;;;5.47;1.95;;;13.30;1.00;;;;;;4981551;28;20125;-56
2023/03/30 05:38:15;;;;;;;5.93;2.28;;;13.30;1.00;;;;;;4980231;28;20039;-56
2023/03/30 05:40:41;;;;;;;6.82;2.22;;;13.30;1.00;;;;;;4980602;28;20031;-56
2023/03/30 05:43:06;;;;;;;5.00;1.88;;;13.20;1.00;;;;;;4978971;28;20038;-56
2023/03/30 05:45:32;;;;;;;8.10;2.28;;;13.30;1.00;;;;;;4981095;28;20409;-57
2023/03/30 05:47:57;;;;;;;5.28;2.25;;;13.30;1.00;;;;;;4974693;28;20046;-56
2023/03/30 05:50:23;;;;;;;6.82;2.28;;;13.30;1.00;;;;;;4979178;28;20474;-57
2023/03/30 05:52:49;;;;;;;6.13;2.28;;;13.30;1.00;;;;;;4980068;28;20780;-57
2023/03/30 05:55:15;;;;;;;6.35;2.35;;;13.20;1.00;;;;;;4980401;28;20062;-56
2023/03/30 05:57:40;;;;;;;4.20;2.00;;;13.20;1.00;;;;;;4983221;28;20034;-57
2023/03/30 06:00:09;;;;;;;6.43;2.10;;;13.20;1.00;;;;;;4980120;28;20054;-56
2023/03/30 06:02:34;;;;;;;7.13;2.30;;;13.20;1.00;;;;;;4979094;28;20359;-56
2023/03/30 06:05:00;;;;;;;5.32;2.20;;;13.20;1.00;;;;;;4982172;28;20042;-56
2023/03/30 06:07:26;;;;;;;6.03;1.92;;;13.20;1.00;;;;;;4979646;28;20044;-57
2023/03/30 06:09:53;;;;;;;6.72;1.83;;;13.30;1.00;;;;;;4978634;28;20097;-57
2023/03/30 06:12:18;;;;;;;5.05;1.98;;;13.30;1.00;;;;;;4982021;28;20518;-57
2023/03/30 06:14:44;;;;;;;3.85;1.58;;;13.40;1.00;;;;;;4988050;28;20056;-56
2023/03/30 06:17:11;;;;;;;5.82;1.85;;;13.40;1.00;;;;;;4971872;28;20469;-56
2023/03/30 06:19:38;;;;;;;13.05;3.38;;;13.40;1.00;;;;;;4972640;28;20126;-56
2023/03/30 06:22:04;;;;;;;17.35;9.57;;;13.50;1.00;;;;;;4980008;28;20038;-60
2023/03/30 06:24:29;;;;;;;4.03;1.65;;;13.50;1.00;;;;;;4977614;28;20037;-60
2023/03/30 06:26:55;;;;;;;6.68;1.80;;;13.50;1.00;;;;;;4977922;28;20065;-59
2023/03/30 06:29:22;;;;;;;8.95;1.60;;;13.50;1.00;;;;;;4975814;28;20104;-59
2023/03/30 06:31:47;;;;;;;4.53;1.50;;;13.60;1.00;;;;;;4973927;28;20046;-60
2023/03/30 06:34:13;;;;;;;2.97;1.70;;;13.50;1.00;;;;;;4976270;28;20049;-60
2023/03/30 06:36:39;;;;;;;7.53;1.58;;;13.60;1.00;;;;;;4976885;28;20057;-60
2023/03/30 06:39:04;;;;;;;5.47;2.08;;;13.60;1.00;;;;;;4978358;28;20138;-60
2023/03/30 06:41:30;;;;;;;6.20;1.83;;;13.70;1.00;;;;;;4974875;28;20030;-60
2023/03/30 06:43:56;;;;;;;4.15;1.55;;;13.70;1.00;;;;;;4978735;28;20610;-60
2023/03/30 06:46:21;;;;;;;3.67;1.50;;;13.70;1.00;;;;;;4967770;28;20358;-60
2023/03/30 06:48:47;;;;;;;4.82;1.77;;;13.80;1.00;;;;;;4973792;28;20310;-60
2023/03/30 06:51:13;;;;;;;6.28;1.65;;;13.80;1.00;;;;;;4976388;28;20386;-60
2023/03/30 06:53:39;;;;;;;6.65;1.77;;;13.90;1.00;;;;;;4976426;28;20049;-60
2023/03/30 06:56:06;;;;;;;9.25;2.00;;;14.00;1.00;;;;;;4970759;28;20158;-59
2023/03/30 06:58:33;;;;;;;5.53;1.60;;;14.00;1.00;;;;;;4975245;28;20074;-60
2023/03/30 07:01:06;;;;;;;5.68;2.17;;;14.00;1.00;;;;;;4975448;28;20579;-60
2023/03/30 07:03:32;;;;;;;3.75;1.73;;;14.00;1.00;;;;;;4965106;28;20034;-60
2023/03/30 07:05:57;;;;;;;7.07;1.83;;;14.10;1.00;;;;;;4976343;28;20118;-61
2023/03/30 07:08:23;;;;;;;3.20;1.60;;;14.10;1.00;;;;;;4978281;28;20042;-59
2023/03/30 07:10:50;;;;;;;7.00;1.85;;;14.10;1.00;;;;;;4973504;28;20600;-60
2023/03/30 07:13:16;;;;;;;3.88;1.60;;;14.10;1.00;;;;;;4970111;28;20088;-60
2023/03/30 07:15:42;;;;;;;7.13;2.00;;;14.10;1.00;;;;;;4982991;28;20079;-60
2023/03/30 07:18:07;;;;;;;5.82;1.88;;;14.00;1.00;;;;;;4975422;28;20605;-60
2023/03/30 07:20:34;;;;;;;10.38;2.60;;;14.00;1.00;;;;;;4976731;28;20036;-60
2023/03/30 07:23:01;;;;;;;6.53;1.90;;;14.10;1.00;;;;;;4976534;28;20181;-60
2023/03/30 07:25:27;;;;;;;7.28;1.75;;;14.00;1.00;;;;;;4962111;28;20076;-60
2023/03/30 07:27:52;;;;;;;7.28;2.00;;;13.90;1.00;;;;;;4976463;28;20050;-60
2023/03/30 07:30:18;;;;;;;8.95;1.80;;;13.90;1.00;;;;;;4978844;28;20127;-59
2023/03/30 07:32:44;;;;;;;4.80;1.90;;;13.90;1.00;;;;;;4971970;28;20374;-60
2023/03/30 07:35:10;;;;;;;5.05;1.80;;;13.80;1.00;;;;;;4979150;28;20255;-60
2023/03/30 07:37:38;;;;;;;5.90;1.65;;;13.70;26.30;;;;;;4975004;28;20038;-60
2023/03/30 07:40:09;;;;;;;4.82;1.80;;;13.70;58.90;;;;;;4977780;28;20073;-60
2023/03/30 07:42:35;;;;;;;5.25;1.70;;;13.60;7.70;;;;;;4978348;28;20045;-60
2023/03/30 07:45:01;;;;;;;5.75;1.73;;;13.60;28.60;;;;;;4977785;28;20061;-61
2023/03/30 07:47:27;;;;;;;6.90;1.63;;;13.60;29.10;;;;;;4970935;28;20047;-60
2023/03/30 07:49:53;;;;;;;5.97;1.58;;;13.70;18.30;;;;;;4971096;28;20034;-60
2023/03/30 07:52:18;;;;;;;6.57;1.88;;;13.80;1.00;;;;;;4975673;28;20125;-60
2023/03/30 07:54:44;;;;;;;5.38;1.55;;;13.90;1.00;;;;;;4972179;28;20049;-60
2023/03/30 07:57:10;;;;;;;7.60;2.00;;;14.00;1.00;;;;;;4970295;28;20155;-60
2023/03/30 07:59:36;;;;;;;9.77;2.30;;;14.10;1.00;;;;;;4968630;28;20379;-60
2023/03/30 08:02:03;;;;;;;9.57;2.00;;;14.00;1.00;;;;;;4972853;28;20144;-60
2023/03/30 08:04:29;;;;;;;7.97;1.92;;;14.00;1.00;;;;;;4968145;28;20125;-60
2023/03/30 08:06:54;;;;;;;7.32;1.90;;;14.10;1.00;;;;;;4972988;28;20548;-60
2023/03/30 08:09:20;;;;;;;6.82;2.10;;;14.10;1.00;;;;;;4976156;28;20060;-60
2023/03/30 08:11:46;;;;;;;7.20;1.98;;;14.20;1.00;;;;;;4976268;28;20035;-60
2023/03/30 08:14:11;;;;;;;9.38;2.00;;;14.20;1.00;;;;;;4972656;28;20455;-60
2023/03/30 08:16:37;;;;;;;8.70;1.88;;;14.20;1.00;;;;;;4975752;28;20038;-60
2023/03/30 08:19:02;;;;;;;5.95;1.90;;;14.20;1.00;;;;;;4976727;28;20118;-60
2023/03/30 08:21:28;;;;;;;7.45;2.10;;;14.00;1.00;;;;;;4965168;28;20046;-60
2023/03/30 08:23:58;;;;;;;9.52;2.90;;;14.00;1.00;;;;;;4977150;28;20049;-60
2023/03/30 08:26:27;;;;;;;5.97;1.95;;;14.00;1.00;;;;;;4975801;28;20049;-60
2023/03/30 08:28:53;;;;;;;8.32;2.20;;;14.10;1.00;;;;;;4964930;28;20466;-60
2023/03/30 08:31:20;;;;;;;8.68;2.20;;;14.10;1.00;;;;;;4966742;28;20042;-60
2023/03/30 08:33:47;;;;;;;5.93;1.92;;;14.10;1.00;;;;;;4972835;28;20038;-59
2023/03/30 08:36:14;;;;;;;9.02;2.75;;;14.30;1.00;;;;;;4971023;28;20069;-60
2023/03/30 08:38:39;;;;;;;8.40;1.90;;;14.50;1.00;;;;;;4975498;28;20041;-60
2023/03/30 08:41:44;;;;;;;7.38;1.92;;;14.50;1.00;;;;;;4972642;28;20054;-60
2023/03/30 08:44:29;;;;;;;6.95;2.50;;;14.60;1.00;;;;;;4970849;28;20038;-60
2023/03/30 08:46:55;;;;;;;9.15;2.22;;;14.60;1.00;;;;;;4974375;28;20498;-60
2023/03/30 08:49:21;;;;;;;9.60;2.35;;;14.50;1.00;;;;;;4976310;28;20042;-60
2023/03/30 08:51:49;;;;;;;9.65;2.55;;;14.60;1.00;;;;;;4976644;28;20433;-59
2023/03/30 08:54:18;;;;;;;6.72;1.90;;;14.60;1.00;;;;;;4980333;28;20100;-60
2023/03/30 08:56:58;;;;;;;8.05;2.17;;;14.70;1.00;;;;;;4978277;28;20181;-60
2023/03/30 08:59:52;;;;;;;10.95;2.47;;;14.70;1.00;;;;;;4974821;28;20161;-60
2023/03/30 09:02:23;;;;;;;11.38;2.55;;;14.80;1.00;;;;;;4976224;28;20283;-60
2023/03/30 09:05:13;;;;;;;7.15;1.98;;;15.10;1.00;;;;;;4976575;28;20043;-60
2023/03/30 09:08:02;;;;;;;10.15;2.20;;;15.20;1.00;;;;;;4971725;28;20638;-60
2023/03/30 09:10:34;;;;;;;10.85;2.88;;;15.10;1.00;;;;;;4978083;28;20042;-59
2023/03/30 09:13:04;;;;;;;10.48;2.35;;;14.90;1.00;;;;;;4974053;28;20047;-60
2023/03/30 09:15:34;;;;;;;11.50;2.35;;;14.90;1.00;;;;;;4976741;28;20042;-60
2023/03/30 09:18:29;;;;;;;15.45;2.63;;;14.80;1.00;;;;;;4979612;28;20328;-60
2023/03/30 09:20:58;;;;;;;12.70;2.67;;;14.90;1.00;;;;;;4973864;28;20143;-60
2023/03/30 09:23:28;;;;;;;11.57;2.42;;;14.70;1.00;;;;;;4976621;28;20044;-60
2023/03/30 09:26:35;;;;;;;9.05;2.13;;;14.70;1.00;;;;;;4980483;28;20030;-60
2023/03/30 09:29:13;;;;;;;10.13;2.15;;;14.80;1.00;;;;;;4977153;28;20033;-60
2023/03/30 09:32:08;;;;;;;10.30;1.85;;;14.70;1.00;;;;;;4979971;28;20424;-60
2023/03/30 09:34:44;;;;;;;12.07;2.00;;;14.90;1.00;;;;;;4978817;28;20554;-60
2023/03/30 09:37:17;;;;;;;10.93;2.55;;;14.90;1.00;;;;;;4979515;28;20120;-59
2023/03/30 09:39:47;;;;;;;8.00;2.28;;;14.80;1.00;;;;;;4979676;28;20065;-58
2023/03/30 09:42:35;;;;;;;12.68;2.80;;;14.50;1.00;;;;;;4980497;28;20035;-59
2023/03/30 09:45:26;;;;;;;8.93;2.33;;;14.40;21.50;;;;;;4978154;28;20065;-59
2023/03/30 09:47:52;;;;;;;12.27;2.42;;;14.10;55.60;;;;;;4972368;28;20635;-59
2023/03/30 09:50:23;;;;;;;15.02;2.28;;;14.00;1.00;;;;;;4976659;28;20042;-59
2023/03/30 09:53:03;;;;;;;11.32;2.20;;;13.80;1.00;;;;;;4977531;28;20295;-59
2023/03/30 09:55:31;;;;;;;13.02;2.60;;;13.80;1.00;;;;;;4974131;28;20124;-59
2023/03/30 09:58:18;;;;;;;10.93;2.38;;;13.80;1.00;;;;;;4970578;28;20042;-59
2023/03/30 10:00:45;;;;;;;11.35;2.97;;;13.90;1.00;;;;;;4974943;28;20034;-59
2023/03/30 10:03:22;;;;;;;13.02;3.55;;;13.90;1.00;;;;;;4978787;28;20061;-59
2023/03/30 10:06:04;;;;;;;12.05;2.30;;;13.80;1.00;;;;;;4976640;28;20129;-59
2023/03/30 10:08:30;;;;;;;13.40;2.67;;;13.90;1.00;;;;;;4978564;28;20045;-59
2023/03/30 10:10:58;;;;;;;12.80;2.35;;;14.00;1.00;;;;;;4978229;28;20034;-59
2023/03/30 10:13:37;;;;;;;12.88;2.78;;;14.10;1.00;;;;;;4975636;28;20591;-59
2023/03/30 10:16:07;;;;;;;12.85;2.75;;;14.00;1.00;;;;;;4977945;28;20124;-59
2023/03/30 10:18:45;;;;;;;13.18;2.55;;;14.10;1.00;;;;;;4978727;28;20320;-59
2023/03/30 10:21:14;;;;;;;8.25;2.30;;;14.20;1.00;;;;;;4973989;28;20049;-59
2023/03/30 10:23:43;;;;;;;11.35;2.63;;;14.30;1.00;;;;;;4971710;28;20145;-59
2023/03/30 10:26:19;;;;;;;12.05;2.22;;;14.30;1.00;;;;;;4977872;28;20137;-60
2023/03/30 10:29:04;;;;;;;11.70;2.85;;;14.40;1.00;;;;;;4977716;28;20502;-60
2023/03/30 10:31:33;;;;;;;9.75;2.45;;;14.50;1.00;;;;;;4975366;28;20030;-59
2023/03/30 10:34:01;;;;;;;10.35;2.22;;;14.40;1.00;;;;;;4977267;28;20050;-60
2023/03/30 10:36:33;;;;;;;13.20;4.50;;;14.50;1.00;;;;;;4979439;28;20402;-60
2023/03/30 10:39:13;;;;;;;11.63;2.47;;;14.60;1.00;;;;;;4974433;28;20035;-59
2023/03/30 10:41:41;;;;;;;11.00;2.70;;;14.70;1.00;;;;;;4976475;28;20031;-59
2023/03/30 10:44:20;;;;;;;12.13;3.03;;;14.80;1.00;;;;;;4975355;28;20405;-59
2023/03/30 10:46:49;;;;;;;9.18;2.60;;;14.90;1.00;;;;;;4975123;28;20038;-60
2023/03/30 10:49:45;;;;;;;11.18;2.80;;;14.80;1.00;;;;;;4978984;28;20046;-60
2023/03/30 10:52:43;;;;;;;12.75;3.20;;;15.00;1.00;;;;;;4978334;28;20034;-60
2023/03/30 10:55:47;;;;;;;11.40;2.80;;;15.10;1.00;;;;;;4977195;28;20164;-63
2023/03/30 10:58:31;;;;;;;9.80;2.70;;;15.20;1.00;;;;;;4974337;28;20026;-59
2023/03/30 11:01:20;;;;;;;8.23;3.00;;;15.40;1.00;;;;;;4975670;28;20041;-60
2023/03/30 11:03:52;;;;;;;11.25;2.85;;;15.40;1.00;;;;;;4976626;28;20457;-60
2023/03/30 11:06:27;;;;;;;10.68;2.75;;;15.40;1.00;;;;;;4976600;28;20112;-60
2023/03/30 11:08:56;;;;;;;10.73;2.80;;;15.50;1.00;;;;;;4971520;28;20317;-60
2023/03/30 11:11:44;;;;;;;11.68;2.80;;;15.70;1.00;;;;;;4977914;28;20443;-60
2023/03/30 11:14:20;;;;;;;13.23;2.88;;;15.70;1.00;;;;;;4972056;28;20043;-60
2023/03/30 11:16:56;;;;;;;12.10;3.13;;;15.70;1.00;;;;;;4971687;28;20038;-60
2023/03/30 11:19:32;;;;;;;12.85;3.08;;;15.60;1.00;;;;;;4974002;28;20588;-59
2023/03/30 11:22:28;;;;;;;15.60;3.00;;;15.50;1.00;;;;;;4974176;28;20047;-59
2023/03/30 11:24:55;;;;;;;15.13;3.40;;;15.10;1.00;;;;;;4979951;28;20153;-58
2023/03/30 11:27:38;;;;;;;9.95;2.83;;;15.00;1.00;;;;;;4976547;28;20038;-58
2023/03/30 11:30:24;;;;;;;14.93;3.33;;;15.00;1.00;;;;;;4974470;28;20034;-58
2023/03/30 11:33:00;;;;;;;14.32;3.28;;;15.10;1.00;;;;;;4977316;28;20081;-59
2023/03/30 11:35:44;;;;;;;11.25;3.05;;;15.30;1.00;;;;;;4973024;28;20042;-59
2023/03/30 11:38:41;;;;;;;11.38;2.70;;;15.40;1.00;;;;;;4978328;28;20077;-59
2023/03/30 11:41:14;;;;;;;13.73;2.33;;;15.60;1.00;;;;;;4975698;28;20521;-59
2023/03/30 11:43:40;;;;;;;;;;;15.40;1.00;;;;;;4974248;28;20426;-60
2023/03/30 11:46:26;;;;;;;11.20;2.53;;;15.50;1.00;;;;;;4975175;28;19918;-59
2023/03/30 11:49:14;;;;;;;12.30;2.75;;;15.60;1.00;;;;;;4977170;28;20585;-59
2023/03/30 11:52:11;;;;;;;9.57;1.90;;;15.60;99.90;;;;;;4978450;28;20034;-59
2023/03/30 11:54:57;;;;;;;11.77;2.53;;;15.60;1.00;;;;;;4972052;28;20042;-59
2023/03/30 11:58:10;;;;;;;13.73;2.78;;;15.60;99.90;;;;;;4972418;28;20058;-59
2023/03/30 12:00:47;;;;;;;9.13;2.35;;;15.40;99.90;;;;;;4928180;28;20043;-59
2023/03/30 12:03:26;;;;;;;10.52;2.15;;;15.30;99.90;;;;;;4927319;28;20089;-60
2023/03/30 12:06:10;;;;;;;13.95;2.67;;;15.30;99.90;;;;;;4951968;28;20042;-59
2023/03/30 12:09:17;;;;;;;9.40;1.95;;;15.10;1.00;;;;;;4963111;28;20046;-59
2023/03/30 12:12:02;;;;;;;11.02;2.00;;;15.10;1.00;;;;;;4970342;28;20461;-59
2023/03/30 12:14:41;;;;;;;8.10;2.10;;;15.10;1.00;;;;;;4971342;28;21114;-59
2023/03/30 12:17:37;;;;;;;8.23;1.90;;;15.10;1.00;;;;;;4971722;28;20038;-60
2023/03/30 12:20:11;;;;;;;6.65;1.70;;;15.00;1.00;;;;;;4976504;28;20037;-59
2023/03/30 12:22:57;;;;;;;7.03;2.00;;;14.80;1.00;;;;;;4973790;28;20298;-59
2023/03/30 12:25:39;;;;;;;7.25;2.00;;;14.70;1.00;;;;;;4974018;28;20034;-59
2023/03/30 12:28:08;;;;;;;6.68;1.63;;;14.70;1.00;;;;;;4977186;28;20125;-59
2023/03/30 12:30:58;;;;;;;7.05;1.90;;;14.60;1.00;;;;;;4975190;28;20034;-59
2023/03/30 12:33:32;;;;;;;10.75;2.25;;;14.60;1.00;;;;;;4976039;28;20343;-59
2023/03/30 12:36:00;;;;;;;8.65;2.25;;;14.50;8.80;;;;;;4978214;28;20030;-58
2023/03/30 12:38:36;;;;;;;9.57;2.10;;;14.20;99.90;;;;;;4979192;28;20034;-58
2023/03/30 12:41:17;;;;;;;15.40;3.17;;;14.20;99.90;;;;;;4973785;28;20185;-59
2023/03/30 12:44:00;;;;;;;10.70;2.42;;;13.80;99.90;;;;;;4978834;28;20042;-59
2023/03/30 12:46:48;;;;;;;;;;;13.50;99.90;;;;;;4978067;28;20291;-59
2023/03/30 12:49:36;;;;;;;10.70;1.85;;;13.10;99.90;;;;;;4980178;28;19980;-60
2023/03/30 12:52:17;;;;;;;8.95;3.25;;;12.40;99.90;;;;;;4975683;28;20031;-59
2023/03/30 12:55:20;;;;;;;7.90;2.38;;;12.50;99.90;;;;;;4975177;28;20459;-60
2023/03/30 12:58:17;;;;;;;8.07;2.70;;;12.70;99.90;;;;;;4978619;28;20039;-60
2023/03/30 13:01:09;;;;;;;7.30;2.28;;;13.20;99.90;;;;;;4958398;28;20030;-60
2023/03/30 13:03:48;;;;;;;10.40;2.72;;;13.50;99.90;;;;;;4978880;28;20026;-60
2023/03/30 13:06:39;;;;;;;8.80;2.63;;;13.70;99.90;;;;;;4974521;28;20076;-60
2023/03/30 13:09:14;;;;;;;10.80;2.35;;;13.80;99.90;;;;;;4968722;28;20544;-59
2023/03/30 13:11:51;;;;;;;10.57;2.97;;;13.90;99.90;;;;;;4976367;28;20034;-59
2023/03/30 13:14:41;;;;;;;10.77;2.70;;;14.00;99.90;;;;;;4979187;28;20113;-60
2023/03/30 13:17:19;;;;;;;11.90;2.42;;;14.10;99.90;;;;;;4973662;28;20142;-60
2023/03/30 13:20:04;;;;;;;11.10;2.47;;;14.10;99.90;;;;;;4976664;28;20381;-60
2023/03/30 13:22:31;;;;;;;11.45;2.45;;;14.20;99.90;;;;;;4979236;28;20037;-60
2023/03/30 13:25:00;;;;;;;11.18;2.80;;;14.30;99.90;;;;;;4976123;28;20398;-60